Time;durP1;ratioP1;P1;durP2;ratioP2;P2;SDS_P1;SDS_P2;PMS_P1;PMS_P2;Temp;Humidity;BMP_temperature;BMP_pressure;BME280_temperature;BME280_humidity;BME280_pressure;Samples;Min_cycle;Max_cycle;Signal;HPM_P1;HPM_P2
2022/06/24 00:01:52;;;;;;;;;;;25.60;68.90;;;;;;5121752;28;19904;-68
2022/06/24 00:04:30;;;;;;;;;;;25.50;68.70;;;;;;5121891;28;19896;-72
2022/06/24 00:07:12;;;;;;;;;;;25.60;69.10;;;;;;5121778;28;19915;-71
2022/06/24 00:09:44;;;;;;;;;;;25.50;69.10;;;;;;5121678;28;19903;-71
2022/06/24 00:12:11;;;;;;;;;;;25.50;69.10;;;;;;5121730;28;19922;-72
2022/06/24 00:14:37;;;;;;;;;;;25.60;68.60;;;;;;5121662;28;19956;-73
2022/06/24 00:17:04;;;;;;;;;;;25.60;68.10;;;;;;5121613;28;19897;-70
2022/06/24 00:19:31;;;;;;;;;;;25.60;67.80;;;;;;5121538;28;19896;-71
2022/06/24 00:22:03;;;;;;;;;;;25.60;67.60;;;;;;5121373;28;19931;-73
2022/06/24 00:24:29;;;;;;;;;;;25.60;67.60;;;;;;5121471;28;19971;-72
2022/06/24 00:26:55;;;;;;;;;;;25.60;67.60;;;;;;5121498;28;19892;-72
2022/06/24 00:29:21;;;;;;;;;;;25.70;67.70;;;;;;5121186;28;19965;-71
2022/06/24 00:32:07;;;;;;;;;;;25.70;67.10;;;;;;5121413;28;19908;-73
2022/06/24 00:34:33;;;;;;;;;;;25.70;67.10;;;;;;5058247;28;19909;-72
2022/06/24 00:37:28;;;;;;;;;;;25.60;67.50;;;;;;5059810;28;19894;-72
2022/06/24 00:39:57;;;;;;;;;;;25.70;67.40;;;;;;5059097;28;19956;-74
2022/06/24 00:42:23;;;;;;;;;;;25.70;67.20;;;;;;5059615;28;20327;-72
2022/06/24 00:45:07;;;;;;;;;;;25.70;67.10;;;;;;5059646;28;19897;-70
2022/06/24 00:47:34;;;;;;;;;;;25.60;67.20;;;;;;5059554;28;19898;-67
2022/06/24 00:50:02;;;;;;;;;;;25.70;66.70;;;;;;5059671;28;19939;-68
2022/06/24 00:52:28;;;;;;;;;;;25.70;66.50;;;;;;5059480;28;19984;-66
2022/06/24 00:55:00;;;;;;;;;;;25.70;65.90;;;;;;5059521;28;19894;-65
2022/06/24 00:57:25;;;;;;;;;;;25.80;65.70;;;;;;5059372;28;19905;-67
2022/06/24 00:59:52;;;;;;;;;;;25.80;65.70;;;;;;5059431;28;19908;-65
2022/06/24 01:02:18;;;;;;;;;;;25.80;65.60;;;;;;5059298;28;19928;-65
2022/06/24 01:04:44;;;;;;;;;;;25.80;65.20;;;;;;5059333;28;19929;-67
2022/06/24 01:07:10;;;;;;;;;;;25.90;64.90;;;;;;5059254;28;19908;-65
2022/06/24 01:09:35;;;;;;;;;;;25.90;64.30;;;;;;5059305;28;19894;-73
2022/06/24 01:12:01;;;;;;;;;;;25.80;64.40;;;;;;5102801;28;19904;-66
2022/06/24 01:14:27;;;;;;;;;;;25.80;64.40;;;;;;5120509;28;19896;-69
2022/06/24 01:16:53;;;;;;;;;;;25.80;64.40;;;;;;5120499;28;19896;-70
2022/06/24 01:19:18;;;;;;;;;;;25.80;64.30;;;;;;5120431;28;19892;-69
2022/06/24 01:21:45;;;;;;;;;;;25.80;64.70;;;;;;5120226;28;19904;-69
2022/06/24 01:24:15;;;;;;;;;;;25.80;64.80;;;;;;5120358;28;19904;-69
2022/06/24 01:26:42;;;;;;;;;;;25.80;64.60;;;;;;5120404;28;19900;-67
2022/06/24 01:29:08;;;;;;;;;;;25.90;64.50;;;;;;5120306;28;19896;-68
2022/06/24 01:31:35;;;;;;;;;;;25.90;64.40;;;;;;5120182;28;19892;-69
2022/06/24 01:34:01;;;;;;;;;;;25.80;64.30;;;;;;5120267;28;19971;-65
2022/06/24 01:36:27;;;;;;;;;;;25.80;64.80;;;;;;5120173;28;19892;-65
2022/06/24 01:38:53;;;;;;;;;;;25.80;65.60;;;;;;5120036;28;19892;-71
2022/06/24 01:41:19;;;;;;;;;;;25.70;65.00;;;;;;5119802;28;19904;-67
2022/06/24 01:43:44;;;;;;;;;;;25.80;64.70;;;;;;5120092;28;19896;-71
2022/06/24 01:46:11;;;;;;;;;;;25.60;64.70;;;;;;5119942;28;19914;-66
2022/06/24 01:48:37;;;;;;;;;;;25.60;65.30;;;;;;5119936;28;19910;-67
2022/06/24 01:51:03;;;;;;;;;;;25.70;65.20;;;;;;5119913;28;20006;-66
2022/06/24 01:53:29;;;;;;;;;;;25.80;65.10;;;;;;5134263;28;19892;-66
2022/06/24 01:55:55;;;;;;;;;;;25.70;64.80;;;;;;5119692;28;19913;-67
2022/06/24 01:58:21;;;;;;;;;;;25.80;64.90;;;;;;5119718;28;19911;-65
2022/06/24 02:00:46;;;;;;;;;;;25.80;65.10;;;;;;5119775;28;19915;-65
2022/06/24 02:03:12;;;;;;;;;;;25.80;64.60;;;;;;5119782;28;19899;-69
2022/06/24 02:05:38;;;;;;;;;;;25.80;64.70;;;;;;5119722;28;19903;-67
2022/06/24 02:08:04;;;;;;;;;;;25.80;64.80;;;;;;5119617;28;19897;-68
2022/06/24 02:13:36;;;;;;;;;;;25.80;64.50;;;;;;5119791;28;19903;-70
2022/06/24 02:16:03;;;;;;;;;;;25.80;64.40;;;;;;5119496;28;19933;-73
2022/06/24 02:18:29;;;;;;;;;;;25.70;64.40;;;;;;5119491;28;19921;-74
2022/06/24 02:20:56;;;;;;;;;;;25.70;64.60;;;;;;5119388;28;19966;-73
2022/06/24 02:23:22;;;;;;;;;;;25.70;64.60;;;;;;5119616;28;19900;-71
2022/06/24 02:25:48;;;;;;;;;;;25.80;64.60;;;;;;5119446;28;19963;-72
2022/06/24 02:28:14;;;;;;;;;;;25.80;64.50;;;;;;5119446;28;19905;-70
2022/06/24 02:30:41;;;;;;;;;;;25.70;64.30;;;;;;5119460;28;19924;-71
2022/06/24 02:33:07;;;;;;;;;;;25.70;64.40;;;;;;5119395;28;19897;-73
2022/06/24 02:35:33;;;;;;;;;;;25.70;64.10;;;;;;5119342;28;19897;-72
2022/06/24 02:37:59;;;;;;;;;;;25.70;64.20;;;;;;5119345;28;19896;-73
2022/06/24 02:43:13;;;;;;;;;;;25.80;63.60;;;;;;5119301;28;19900;-72
2022/06/24 02:45:39;;;;;;;;;;;25.80;63.60;;;;;;5119232;28;19904;-73
2022/06/24 02:48:06;;;;;;;;;;;25.80;63.50;;;;;;5119242;28;19896;-73
2022/06/24 02:50:31;;;;;;;;;;;25.80;63.20;;;;;;5119266;28;19976;-69
2022/06/24 02:52:57;;;;;;;;;;;25.80;63.20;;;;;;5131750;28;19892;-69
2022/06/24 02:55:23;;;;;;;;;;;25.80;63.30;;;;;;5120865;28;19892;-68
2022/06/24 02:57:48;;;;;;;;;;;25.80;63.50;;;;;;5119132;28;19934;-69
2022/06/24 03:00:14;;;;;;;;;;;25.70;63.50;;;;;;5119010;28;19892;-69
2022/06/24 03:02:40;;;;;;;;;;;25.60;63.00;;;;;;5121554;28;19892;-71
2022/06/24 03:05:06;;;;;;;;;;;25.60;63.40;;;;;;5123069;28;19896;-67
2022/06/24 03:07:31;;;;;;;;;;;25.60;63.50;;;;;;5123038;28;19896;-72
2022/06/24 03:09:57;;;;;;;;;;;25.60;63.50;;;;;;5122970;28;19904;-66
2022/06/24 03:12:23;;;;;;;;;;;25.60;63.60;;;;;;5122888;28;19900;-66
2022/06/24 03:14:49;;;;;;;;;;;25.60;63.30;;;;;;5122882;28;19903;-66
2022/06/24 03:17:14;;;;;;;;;;;25.60;63.30;;;;;;5122814;28;19914;-65
2022/06/24 03:19:40;;;;;;;;;;;25.60;63.00;;;;;;5122729;28;19898;-67
2022/06/24 03:22:06;;;;;;;;;;;25.70;62.90;;;;;;5122710;28;19907;-64
2022/06/24 03:24:32;;;;;;;;;;;25.60;63.20;;;;;;5122781;28;19903;-68
2022/06/24 03:26:57;;;;;;;;;;;25.60;63.60;;;;;;5122757;28;19900;-70
2022/06/24 03:29:23;;;;;;;;;;;25.60;63.60;;;;;;5122332;28;19899;-68
2022/06/24 03:31:49;;;;;;;;;;;25.50;63.10;;;;;;5122566;28;19977;-67
2022/06/24 03:34:14;;;;;;;;;;;25.50;63.60;;;;;;5122470;28;19914;-66
2022/06/24 03:36:40;;;;;;;;;;;25.50;63.80;;;;;;5122582;28;19899;-67
2022/06/24 03:39:06;;;;;;;;;;;25.40;63.80;;;;;;5122250;28;19899;-65
2022/06/24 03:41:33;;;;;;;;;;;25.30;64.00;;;;;;5122416;28;19912;-68
2022/06/24 03:43:59;;;;;;;;;;;25.30;64.30;;;;;;5122338;28;19903;-68
2022/06/24 03:46:25;;;;;;;;;;;25.30;64.20;;;;;;5122147;28;19955;-71
2022/06/24 03:48:51;;;;;;;;;;;25.40;64.60;;;;;;5122278;28;19912;-69
2022/06/24 03:51:17;;;;;;;;;;;25.40;64.30;;;;;;5122262;28;19892;-67
2022/06/24 03:53:42;;;;;;;;;;;25.50;64.10;;;;;;5136577;28;19896;-71
2022/06/24 03:56:09;;;;;;;;;;;25.50;63.80;;;;;;5121938;28;19904;-70
2022/06/24 03:58:35;;;;;;;;;;;25.30;64.20;;;;;;5121799;28;19896;-67
2022/06/24 04:01:01;;;;;;;;;;;25.30;64.20;;;;;;5122086;28;19964;-67
2022/06/24 04:03:27;;;;;;;;;;;25.30;64.80;;;;;;5121924;28;19956;-66
2022/06/24 04:05:53;;;;;;;;;;;25.20;65.80;;;;;;5121893;28;19905;-67
2022/06/24 04:08:18;;;;;;;;;;;25.10;67.20;;;;;;5121814;28;19892;-70
2022/06/24 04:10:44;;;;;;;;;;;25.00;68.30;;;;;;5121728;28;19896;-70
2022/06/24 04:13:10;;;;;;;;;;;24.60;70.00;;;;;;5120590;28;19892;-63
2022/06/24 04:15:36;;;;;;;;;;;24.70;70.20;;;;;;5121481;28;19896;-69
2022/06/24 04:18:01;;;;;;;;;;;24.80;70.00;;;;;;5121593;28;19908;-72
2022/06/24 04:20:27;;;;;;;;;;;24.90;70.10;;;;;;5121499;28;19942;-67
2022/06/24 04:22:53;;;;;;;;;;;24.80;70.20;;;;;;5121539;28;19900;-74
2022/06/24 04:25:19;;;;;;;;;;;24.80;70.60;;;;;;5121504;28;19900;-72
2022/06/24 04:27:45;;;;;;;;;;;24.80;70.60;;;;;;5121385;28;19906;-73
2022/06/24 04:30:11;;;;;;;;;;;24.80;70.70;;;;;;5121435;28;19899;-74
2022/06/24 04:32:37;;;;;;;;;;;24.70;70.70;;;;;;5121301;28;20280;-71
2022/06/24 04:35:04;;;;;;;;;;;24.70;69.80;;;;;;5121332;28;19892;-73
2022/06/24 04:37:29;;;;;;;;;;;24.70;71.00;;;;;;5121142;28;19914;-71
2022/06/24 04:39:58;;;;;;;;;;;24.70;71.20;;;;;;5121279;28;19896;-73
2022/06/24 04:42:24;;;;;;;;;;;24.60;71.00;;;;;;5103508;28;19932;-71
2022/06/24 04:44:49;;;;;;;;;;;24.70;71.30;;;;;;5121097;28;19896;-72
2022/06/24 04:47:15;;;;;;;;;;;24.80;71.20;;;;;;5121015;28;19921;-70
2022/06/24 04:49:41;;;;;;;;;;;24.70;71.20;;;;;;5120921;28;19908;-70
2022/06/24 04:52:07;;;;;;;;;;;24.70;71.60;;;;;;5126289;28;19902;-73
2022/06/24 04:54:32;;;;;;;;;;;24.70;72.00;;;;;;5129926;28;19907;-72
2022/06/24 04:56:58;;;;;;;;;;;24.70;70.40;;;;;;5120676;28;19911;-68
2022/06/24 04:59:24;;;;;;;;;;;24.80;69.20;;;;;;5120732;28;19899;-70
2022/06/24 05:01:50;;;;;;;;;;;24.90;67.70;;;;;;5120685;28;19982;-67
2022/06/24 05:04:16;;;;;;;;;;;25.10;68.10;;;;;;5120893;28;19896;-66
2022/06/24 05:06:41;;;;;;;;;;;25.20;67.20;;;;;;5120743;28;19892;-69
2022/06/24 05:09:07;;;;;;;;;;;25.30;67.20;;;;;;5120548;28;19892;-73
2022/06/24 05:11:34;;;;;;;;;;;25.40;66.80;;;;;;5120638;28;19896;-67
2022/06/24 05:13:59;;;;;;;;;;;25.40;65.70;;;;;;5120583;28;19965;-70
2022/06/24 05:16:25;;;;;;;;;;;25.50;65.90;;;;;;5120519;28;19892;-68
2022/06/24 05:18:51;;;;;;;;;;;25.60;65.80;;;;;;5120420;28;19900;-73
2022/06/24 05:21:16;;;;;;;;;;;25.40;66.20;;;;;;5120363;28;19936;-70
2022/06/24 05:23:42;;;;;;;;;;;25.40;65.70;;;;;;5120433;28;19896;-69
2022/06/24 05:26:08;;;;;;;;;;;25.60;66.20;;;;;;5119893;28;19916;-72
2022/06/24 05:28:38;;;;;;;;;;;25.60;66.10;;;;;;5120282;28;19892;-74
2022/06/24 05:31:03;;;;;;;;;;;25.60;66.30;;;;;;5120181;28;19916;-72
2022/06/24 05:33:30;;;;;;;;;;;25.70;66.50;;;;;;5120278;28;19903;-75
2022/06/24 05:35:58;;;;;;;;;;;25.70;66.60;;;;;;5120051;28;19892;-71
2022/06/24 05:38:24;;;;;;;;;;;26.00;66.70;;;;;;5120053;28;19904;-69
2022/06/24 05:40:50;;;;;;;;;;;26.40;65.00;;;;;;5119934;28;19915;-65
2022/06/24 05:43:16;;;;;;;;;;;26.90;63.70;;;;;;5120114;28;19915;-62
2022/06/24 05:45:42;;;;;;;;;;;27.30;61.90;;;;;;5120012;28;19974;-75
2022/06/24 05:48:08;;;;;;;;;;;27.70;60.40;;;;;;5119885;28;19897;-77
2022/06/24 05:50:53;;;;;;;;;;;28.00;59.40;;;;;;5120014;28;19900;-71
2022/06/24 05:56:03;;;;;;;;;;;28.50;57.50;;;;;;5119502;28;19930;-65
2022/06/24 05:58:29;;;;;;;;;;;28.90;56.60;;;;;;5119418;28;19951;-63
2022/06/24 06:00:56;;;;;;;;;;;29.10;56.10;;;;;;5119156;28;19908;-69
2022/06/24 06:03:22;;;;;;;;;;;29.30;55.40;;;;;;5118968;28;19915;-64
2022/06/24 06:05:48;;;;;;;;;;;29.40;54.80;;;;;;5118785;28;19976;-64
2022/06/24 06:08:15;;;;;;;;;;;29.60;54.50;;;;;;5136494;28;19896;-71
2022/06/24 06:10:40;;;;;;;;;;;29.70;54.30;;;;;;5139427;28;19892;-66
2022/06/24 06:13:12;;;;;;;;;;;29.80;54.00;;;;;;5138916;28;19903;-72
2022/06/24 06:15:38;;;;;;;;;;;30.00;53.70;;;;;;5139128;28;20018;-66
2022/06/24 06:18:05;;;;;;;;;;;30.10;53.30;;;;;;5139117;28;19899;-71
2022/06/24 06:20:31;;;;;;;;;;;30.30;53.00;;;;;;5138963;28;19896;-67
2022/06/24 06:22:56;;;;;;;;;;;30.40;52.60;;;;;;5139123;28;19921;-64
2022/06/24 06:25:22;;;;;;;;;;;30.50;52.70;;;;;;5133582;28;19918;-73
2022/06/24 06:27:49;;;;;;;;;;;30.60;52.40;;;;;;5119381;28;20142;-76
2022/06/24 06:30:15;;;;;;;;;;;30.80;52.10;;;;;;5119265;28;19911;-68
2022/06/24 06:32:41;;;;;;;;;;;30.90;51.60;;;;;;5119410;28;19937;-65
2022/06/24 06:35:07;;;;;;;;;;;30.90;51.40;;;;;;5119357;28;19903;-68
2022/06/24 06:37:33;;;;;;;;;;;30.70;52.20;;;;;;5121635;28;19897;-63
2022/06/24 06:39:59;;;;;;;;;;;30.80;52.00;;;;;;5123511;28;19896;-69
2022/06/24 06:42:25;;;;;;;;;;;30.80;51.50;;;;;;5123354;28;19971;-69
2022/06/24 06:44:51;;;;;;;;;;;31.00;52.00;;;;;;5123460;28;19934;-67
2022/06/24 06:47:17;;;;;;;;;;;31.20;51.10;;;;;;5141204;28;19902;-67
2022/06/24 06:49:42;;;;;;;;;;;31.10;51.20;;;;;;5125090;28;19899;-69
2022/06/24 06:52:08;;;;;;;;;;;31.20;51.30;;;;;;5132969;28;19900;-69
2022/06/24 06:54:34;;;;;;;;;;;31.10;50.90;;;;;;5131890;28;19893;-70
2022/06/24 06:57:00;;;;;;;;;;;31.30;50.60;;;;;;5122829;28;19904;-69
2022/06/24 06:59:25;;;;;;;;;;;31.30;50.80;;;;;;5123030;28;19892;-66
2022/06/24 07:01:51;;;;;;;;;;;31.60;50.40;;;;;;5105473;28;19912;-64
2022/06/24 07:04:17;;;;;;;;;;;31.60;49.70;;;;;;5123026;28;19892;-64
2022/06/24 07:06:42;;;;;;;;;;;31.80;49.30;;;;;;5122864;28;19892;-64
2022/06/24 07:09:08;;;;;;;;;;;31.90;49.00;;;;;;5122754;28;19897;-65
2022/06/24 07:11:34;;;;;;;;;;;32.20;48.40;;;;;;5122938;28;20323;-64
2022/06/24 07:14:00;;;;;;;;;;;32.30;48.00;;;;;;5122768;28;19896;-66
2022/06/24 07:16:26;;;;;;;;;;;32.30;48.20;;;;;;5122726;28;19900;-66
2022/06/24 07:18:51;;;;;;;;;;;32.20;47.80;;;;;;5122637;28;19896;-66
2022/06/24 07:21:17;;;;;;;;;;;32.30;47.80;;;;;;5122601;28;19992;-66
2022/06/24 07:23:43;;;;;;;;;;;32.60;47.50;;;;;;5122701;28;19896;-66
2022/06/24 07:26:09;;;;;;;;;;;32.50;47.90;;;;;;5122612;28;19900;-68
2022/06/24 07:28:35;;;;;;;;;;;32.60;47.00;;;;;;5122504;28;19896;-66
2022/06/24 07:31:11;;;;;;;;;;;32.50;46.50;;;;;;5122240;28;19908;-67
2022/06/24 07:33:36;;;;;;;;;;;32.50;46.80;;;;;;5122350;28;19923;-69
2022/06/24 07:36:02;;;;;;;;;;;32.60;47.10;;;;;;5122200;28;19892;-69
2022/06/24 07:38:28;;;;;;;;;;;32.70;46.70;;;;;;5122374;28;19968;-68
2022/06/24 07:40:55;;;;;;;;;;;32.60;46.90;;;;;;5121951;28;19900;-68
2022/06/24 07:43:20;;;;;;;;;;;32.70;46.90;;;;;;5122294;28;19892;-67
2022/06/24 07:45:46;;;;;;;;;;;32.50;46.80;;;;;;5122152;28;19918;-67
2022/06/24 07:48:12;;;;;;;;;;;32.60;47.00;;;;;;5121842;28;19914;-68
2022/06/24 07:50:38;;;;;;;;;;;32.30;47.70;;;;;;5122081;28;19903;-68
2022/06/24 07:53:03;;;;;;;;;;;32.10;47.90;;;;;;5135425;28;19899;-68
2022/06/24 07:58:14;;;;;;;;;;;31.60;48.80;;;;;;5101575;28;19968;-67
2022/06/24 08:00:40;;;;;;;;;;;31.20;49.50;;;;;;5101268;28;19939;-66
2022/06/24 08:03:05;;;;;;;;;;;31.30;49.60;;;;;;5101524;28;19903;-67
2022/06/24 08:05:31;;;;;;;;;;;31.20;49.60;;;;;;5101354;28;19911;-66
2022/06/24 08:07:57;;;;;;;;;;;31.10;49.80;;;;;;5101381;28;19899;-68
2022/06/24 08:10:23;;;;;;;;;;;31.20;50.00;;;;;;5101284;28;19948;-66
2022/06/24 08:12:48;;;;;;;;;;;31.40;49.70;;;;;;5101337;28;19896;-66
2022/06/24 08:15:16;;;;;;;;;;;31.40;48.50;;;;;;5101373;28;19948;-65
2022/06/24 08:17:42;;;;;;;;;;;31.30;49.70;;;;;;5115323;28;19931;-65
2022/06/24 08:20:08;;;;;;;;;;;31.40;50.40;;;;;;5101265;28;19897;-65
2022/06/24 08:22:34;;;;;;;;;;;31.60;51.60;;;;;;5100480;28;19905;-65
2022/06/24 08:25:01;;;;;;;;;;;31.70;51.80;;;;;;5101249;28;19893;-66
2022/06/24 08:27:27;;;;;;;;;;;31.80;52.00;;;;;;5100995;28;19896;-66
2022/06/24 08:29:53;;;;;;;;;;;31.70;51.40;;;;;;5101114;28;19892;-66
2022/06/24 08:32:19;;;;;;;;;;;31.50;51.90;;;;;;5101027;28;19900;-65
2022/06/24 08:34:44;;;;;;;;;;;31.50;51.80;;;;;;5101124;28;19930;-66
2022/06/24 08:37:10;;;;;;;;;;;31.50;51.90;;;;;;5101003;28;19897;-66
2022/06/24 08:39:36;;;;;;;;;;;31.50;51.60;;;;;;5100814;28;19955;-66
2022/06/24 08:42:03;;;;;;;;;;;31.50;51.70;;;;;;5100848;28;19908;-66
2022/06/24 08:44:29;;;;;;;;;;;31.40;52.30;;;;;;5100579;28;19900;-66
2022/06/24 08:46:54;;;;;;;;;;;31.20;52.60;;;;;;5100522;28;19915;-67
2022/06/24 08:49:20;;;;;;;;;;;31.00;52.30;;;;;;5100429;28;19919;-66
2022/06/24 08:51:47;;;;;;;;;;;31.00;52.70;;;;;;5103165;28;19904;-66
2022/06/24 08:54:14;;;;;;;;;;;30.90;53.10;;;;;;5112161;28;19893;-66
2022/06/24 08:56:40;;;;;;;;;;;30.90;52.90;;;;;;5108658;28;19916;-65
2022/06/24 08:59:06;;;;;;;;;;;31.10;52.80;;;;;;5120301;28;19964;-65
2022/06/24 09:01:37;;;;;;;;;;;31.20;52.40;;;;;;5103165;28;19908;-66
2022/06/24 09:04:03;;;;;;;;;;;31.20;52.10;;;;;;5120637;28;19892;-66
2022/06/24 09:06:36;;;;;;;;;;;31.10;52.40;;;;;;5120726;28;19915;-66
2022/06/24 09:09:02;;;;;;;;;;;31.00;52.80;;;;;;5120619;28;20172;-65
2022/06/24 09:11:35;;;;;;;;;;;31.00;53.30;;;;;;5120584;28;19899;-65
2022/06/24 09:14:00;;;;;;;;;;;30.90;53.10;;;;;;5120668;28;19896;-65
2022/06/24 09:16:26;;;;;;;;;;;30.80;53.60;;;;;;5120598;28;19960;-64
2022/06/24 09:18:53;;;;;;;;;;;30.80;53.70;;;;;;5120415;28;19899;-65
2022/06/24 09:21:23;;;;;;;;;;;30.70;53.40;;;;;;5120396;28;19904;-63
2022/06/24 09:23:57;;;;;;;;;;;30.70;54.10;;;;;;5120387;28;19899;-65
2022/06/24 09:26:33;;;;;;;;;;;30.60;54.20;;;;;;5120439;28;19918;-65
2022/06/24 09:28:59;;;;;;;;;;;30.60;54.60;;;;;;5120291;28;19919;-64
2022/06/24 09:31:25;;;;;;;;;;;30.70;54.40;;;;;;5120327;28;19914;-64
2022/06/24 09:33:52;;;;;;;;;;;30.70;54.40;;;;;;5120357;28;19900;-65
2022/06/24 09:36:21;;;;;;;;;;;30.80;54.50;;;;;;5119886;28;19906;-63
2022/06/24 09:38:54;;;;;;;;;;;30.80;54.00;;;;;;5119887;28;19899;-67
2022/06/24 09:41:20;;;;;;;;;;;30.70;54.00;;;;;;5119288;28;19900;-65
2022/06/24 09:43:46;;;;;;;;;;;30.60;54.60;;;;;;5119473;28;19911;-66
2022/06/24 09:46:21;;;;;;;;;;;30.40;54.40;;;;;;5119325;28;19909;-67
2022/06/24 09:48:47;;;;;;;;;;;30.40;55.40;;;;;;5119157;28;19919;-68
2022/06/24 09:51:14;;;;;;;;;;;30.40;55.00;;;;;;5119492;28;19893;-69
2022/06/24 09:53:40;;;;;;;;;;;30.50;56.00;;;;;;5116637;28;19899;-68
2022/06/24 09:56:07;;;;;;;;;;;30.40;55.00;;;;;;5119110;28;19986;-65
2022/06/24 09:58:43;;;;;;;;;;;30.40;55.90;;;;;;5136676;28;19896;-67
2022/06/24 10:01:09;;;;;;;;;;;30.30;56.10;;;;;;5139281;28;19908;-66
2022/06/24 10:03:37;;;;;;;;;;;30.10;56.60;;;;;;5139443;28;19892;-66
2022/06/24 10:06:04;;;;;;;;;;;29.90;57.70;;;;;;5132724;28;19892;-66
2022/06/24 10:08:32;;;;;;;;;;;29.80;58.10;;;;;;5119777;28;20281;-65
2022/06/24 10:10:59;;;;;;;;;;;29.80;56.30;;;;;;5127166;28;19893;-65
2022/06/24 10:13:25;;;;;;;;;;;30.00;56.90;;;;;;5118889;28;19896;-65
2022/06/24 10:15:52;;;;;;;;;;;30.10;55.20;;;;;;5136464;28;19903;-65
2022/06/24 10:18:19;;;;;;;;;;;30.10;55.20;;;;;;5139241;28;19896;-65
2022/06/24 10:20:49;;;;;;;;;;;30.10;55.80;;;;;;5139022;28;20856;-65
2022/06/24 10:23:34;;;;;;;;;;;30.10;56.90;;;;;;5137342;28;19892;-66
2022/06/24 10:26:07;;;;;;;;;;;30.00;58.50;;;;;;5124019;28;19893;-66
2022/06/24 10:28:36;;;;;;;;;;;30.00;60.90;;;;;;5119589;28;19904;-66
2022/06/24 10:31:01;;;;;;;;;;;30.10;60.70;;;;;;5119461;28;19900;-64
2022/06/24 10:33:28;;;;;;;;;;;30.00;61.80;;;;;;5119588;28;19923;-66
2022/06/24 10:36:04;;;;;;;;;;;29.80;61.70;;;;;;5127691;28;19938;-66
2022/06/24 10:38:42;;;;;;;;;;;29.10;63.70;;;;;;5113416;28;19897;-65
2022/06/24 10:41:11;;;;;;;;;;;29.10;63.60;;;;;;5118570;28;19900;-67
2022/06/24 10:43:41;;;;;;;;;;;29.00;58.90;;;;;;5136240;28;19940;-65
2022/06/24 10:46:13;;;;;;;;;;;29.10;57.40;;;;;;5139028;28;19892;-65
2022/06/24 10:48:44;;;;;;;;;;;29.00;57.20;;;;;;5138898;28;19903;-65
2022/06/24 10:51:11;;;;;;;;;;;29.00;55.70;;;;;;5123839;28;19900;-65
2022/06/24 10:53:56;;;;;;;;;;;28.80;55.60;;;;;;5119229;28;19960;-67
2022/06/24 10:56:40;;;;;;;;;;;28.80;54.20;;;;;;5117646;28;19916;-65
2022/06/24 10:59:05;;;;;;;;;;;28.60;52.40;;;;;;5117613;28;19904;-66
2022/06/24 11:01:32;;;;;;;;;;;28.70;52.50;;;;;;5117855;28;19912;-67
2022/06/24 11:03:59;;;;;;;;;;;28.90;52.70;;;;;;5117531;28;19892;-67
2022/06/24 11:06:25;;;;;;;;;;;29.00;53.20;;;;;;5118590;28;19911;-67
2022/06/24 11:08:50;;;;;;;;;;;29.10;55.00;;;;;;5117670;28;19896;-66
2022/06/24 11:11:30;;;;;;;;;;;29.20;54.50;;;;;;5117826;28;19919;-66
2022/06/24 11:13:56;;;;;;;;;;;29.20;55.20;;;;;;5117873;28;19948;-67
2022/06/24 11:16:25;;;;;;;;;;;29.30;55.20;;;;;;5130362;28;19926;-66
2022/06/24 11:18:51;;;;;;;;;;;29.40;55.70;;;;;;5131155;28;19893;-64
2022/06/24 11:21:19;;;;;;;;;;;29.60;55.80;;;;;;5129007;28;19959;-65
2022/06/24 11:23:46;;;;;;;;;;;29.70;55.40;;;;;;5125978;28;19922;-64
2022/06/24 11:26:12;;;;;;;;;;;29.70;56.00;;;;;;5130811;28;19935;-66
2022/06/24 11:28:38;;;;;;;;;;;29.40;55.50;;;;;;5121450;28;19896;-64
2022/06/24 11:31:24;;;;;;;;;;;29.30;55.70;;;;;;5121358;28;19896;-64
2022/06/24 11:33:58;;;;;;;;;;;29.40;55.30;;;;;;5123348;28;19960;-64
2022/06/24 11:36:26;;;;;;;;;;;29.40;56.60;;;;;;5121623;28;19893;-65
2022/06/24 11:39:02;;;;;;;;;;;29.30;55.80;;;;;;5122372;28;20031;-64
2022/06/24 11:41:38;;;;;;;;;;;29.20;53.80;;;;;;5122568;28;19916;-66
2022/06/24 11:44:04;;;;;;;;;;;29.40;54.00;;;;;;5121491;28;19930;-66
2022/06/24 11:46:32;;;;;;;;;;;29.50;53.40;;;;;;5121043;28;19896;-67
2022/06/24 11:49:04;;;;;;;;;;;29.60;52.30;;;;;;5121279;28;19903;-66
2022/06/24 11:51:29;;;;;;;;;;;29.80;53.00;;;;;;5130306;28;19899;-67
2022/06/24 11:53:56;;;;;;;;;;;30.10;53.40;;;;;;5134964;28;19896;-65
2022/06/24 11:56:29;;;;;;;;;;;29.90;51.60;;;;;;5127851;28;19923;-72
2022/06/24 11:58:59;;;;;;;;;;;29.60;49.70;;;;;;5140270;28;19945;-69
2022/06/24 12:01:48;;;;;;;;;;;29.50;53.30;;;;;;5141451;28;19929;-67
2022/06/24 12:04:14;;;;;;;;;;;29.40;54.80;;;;;;5125901;28;19923;-67
2022/06/24 12:06:40;;;;;;;;;;;29.10;55.80;;;;;;5141154;28;19899;-69
2022/06/24 12:09:06;;;;;;;;;;;29.40;54.80;;;;;;5129672;28;19918;-69
2022/06/24 12:11:39;;;;;;;;;;;29.40;53.40;;;;;;5131764;28;19903;-68
2022/06/24 12:14:06;;;;;;;;;;;29.20;52.90;;;;;;5126179;28;19960;-73
2022/06/24 12:16:51;;;;;;;;;;;29.50;53.40;;;;;;5123562;28;19907;-67
2022/06/24 12:19:17;;;;;;;;;;;29.70;51.80;;;;;;5120896;28;19892;-69
2022/06/24 12:21:42;;;;;;;;;;;30.00;51.20;;;;;;5120486;28;19972;-66
2022/06/24 12:24:24;;;;;;;;;;;30.00;51.90;;;;;;5123174;28;19903;-68
2022/06/24 12:26:56;;;;;;;;;;;29.60;51.50;;;;;;5133067;28;19903;-66
2022/06/24 12:29:32;;;;;;;;;;;29.40;51.90;;;;;;5131955;28;19914;-66
2022/06/24 12:31:58;;;;;;;;;;;29.30;53.20;;;;;;5116281;28;19903;-64
2022/06/24 12:34:25;;;;;;;;;;;29.40;53.60;;;;;;5128989;28;19896;-68
2022/06/24 12:36:55;;;;;;;;;;;29.30;53.50;;;;;;5126536;28;19903;-67
2022/06/24 12:39:26;;;;;;;;;;;29.60;53.30;;;;;;5128168;28;21001;-67
2022/06/24 12:41:52;;;;;;;;;;;29.60;49.80;;;;;;5121998;28;19904;-66
2022/06/24 12:44:17;;;;;;;;;;;29.60;50.70;;;;;;5120137;28;19907;-70
2022/06/24 12:52:35;;;;;;;;;;;30.30;50.60;;;;;;5118917;28;19899;-70
2022/06/24 12:55:01;;;;;;;;;;;30.10;50.70;;;;;;5125174;28;19959;-69
2022/06/24 12:57:27;;;;;;;;;;;29.80;50.20;;;;;;5127271;28;19911;-71
2022/06/24 12:59:52;;;;;;;;;;;29.90;52.00;;;;;;5131232;28;19904;-70
2022/06/24 13:02:18;;;;;;;;;;;29.80;49.20;;;;;;5122039;28;19904;-76
2022/06/24 13:04:44;;;;;;;;;;;29.80;48.00;;;;;;5119740;28;19898;-74
2022/06/24 13:07:09;;;;;;;;;;;29.60;46.80;;;;;;5119907;28;19899;-76
2022/06/24 13:09:35;;;;;;;;;;;29.40;45.30;;;;;;5119757;28;19907;-75
2022/06/24 13:12:01;;;;;;;;;;;29.60;43.00;;;;;;5119717;28;19908;-75
2022/06/24 13:14:27;;;;;;;;;;;29.60;43.80;;;;;;5119914;28;19898;-74
2022/06/24 13:16:52;;;;;;;;;;;29.60;43.80;;;;;;5119535;28;19897;-74
2022/06/24 13:19:18;;;;;;;;;;;29.80;42.80;;;;;;5119566;28;19896;-65
2022/06/24 13:21:44;;;;;;;;;;;30.00;42.70;;;;;;5119654;28;19900;-65
2022/06/24 13:24:09;;;;;;;;;;;30.00;43.10;;;;;;5119593;28;19896;-71
2022/06/24 13:26:35;;;;;;;;;;;30.20;42.80;;;;;;5120010;28;19914;-74
2022/06/24 13:29:01;;;;;;;;;;;30.40;43.10;;;;;;5119763;28;19892;-73
2022/06/24 13:31:27;;;;;;;;;;;30.60;43.30;;;;;;5122667;28;19892;-73
2022/06/24 13:33:52;;;;;;;;;;;30.80;41.60;;;;;;5119677;28;19900;-75
2022/06/24 13:36:18;;;;;;;;;;;30.70;41.10;;;;;;5119701;28;19904;-74
2022/06/24 13:38:44;;;;;;;;;;;30.90;41.60;;;;;;5119656;28;19903;-75
2022/06/24 13:41:10;;;;;;;;;;;30.90;41.70;;;;;;5119724;28;19900;-75
2022/06/24 13:43:36;;;;;;;;;;;30.80;39.40;;;;;;5119517;28;19896;-75
2022/06/24 13:46:02;;;;;;;;;;;30.60;39.90;;;;;;5119365;28;19910;-74
2022/06/24 13:48:28;;;;;;;;;;;30.50;41.00;;;;;;5119399;28;19896;-71
2022/06/24 13:50:53;;;;;;;;;;;30.50;40.50;;;;;;5119533;28;19892;-72
2022/06/24 13:53:19;;;;;;;;;;;30.40;42.00;;;;;;5121641;28;19892;-72
2022/06/24 13:55:45;;;;;;;;;;;30.40;41.70;;;;;;5119561;28;19900;-67
2022/06/24 13:58:12;;;;;;;;;;;30.60;41.00;;;;;;5119258;28;19896;-68
2022/06/24 14:00:44;;;;;;;;;;;30.60;43.20;;;;;;5119542;28;19896;-70
2022/06/24 14:03:09;;;;;;;;;;;30.50;44.40;;;;;;5119440;28;19959;-73
2022/06/24 14:05:35;;;;;;;;;;;30.40;42.30;;;;;;5118590;28;19893;-70
2022/06/24 14:08:02;;;;;;;;;;;30.40;44.30;;;;;;5129889;28;19895;-66
2022/06/24 14:10:27;;;;;;;;;;;30.30;44.10;;;;;;5137549;28;20619;-69
2022/06/24 14:12:54;;;;;;;;;;;29.80;43.70;;;;;;5134699;28;19907;-67
2022/06/24 14:15:20;;;;;;;;;;;29.80;42.30;;;;;;5137783;28;19928;-71
2022/06/24 14:17:46;;;;;;;;;;;29.70;44.30;;;;;;5138378;28;19907;-72
2022/06/24 14:20:12;;;;;;;;;;;29.80;43.70;;;;;;5138768;28;19908;-71
2022/06/24 14:22:38;;;;;;;;;;;29.70;42.40;;;;;;5139116;28;19900;-76
2022/06/24 14:25:03;;;;;;;;;;;29.80;42.70;;;;;;5119100;28;19897;-71
2022/06/24 14:27:30;;;;;;;;;;;30.00;41.90;;;;;;5118577;28;19907;-72
2022/06/24 14:29:55;;;;;;;;;;;29.90;42.90;;;;;;5131713;28;19967;-74
2022/06/24 14:32:21;;;;;;;;;;;30.20;43.70;;;;;;5139076;28;19892;-71
2022/06/24 14:34:47;;;;;;;;;;;30.40;43.60;;;;;;5138518;28;19896;-74